地図

経路データ

SID SEASON NUMBER BASIN SUBBASIN NAME ISO_TIME NATURE LAT LON WMO_WIND WMO_PRES WMO_AGENCY TRACK_TYPE DIST2LAND LANDFALL IFLAG USA_AGENCY USA_ATCF_ID USA_LAT USA_LON USA_RECORD USA_STATUS USA_WIND USA_PRES USA_SSHS USA_R34_NE USA_R34_SE USA_R34_SW USA_R34_NW USA_R50_NE USA_R50_SE USA_R50_SW USA_R50_NW USA_R64_NE USA_R64_SE USA_R64_SW USA_R64_NW USA_POCI USA_ROCI USA_RMW USA_EYE TOKYO_LAT TOKYO_LON TOKYO_GRADE TOKYO_WIND TOKYO_PRES TOKYO_R50_DIR TOKYO_R50_LONG TOKYO_R50_SHORT TOKYO_R30_DIR TOKYO_R30_LONG TOKYO_R30_SHORT TOKYO_LAND CMA_LAT CMA_LON CMA_CAT CMA_WIND CMA_PRES HKO_LAT HKO_LON HKO_CAT HKO_WIND HKO_PRES NEWDELHI_LAT NEWDELHI_LON NEWDELHI_GRADE NEWDELHI_WIND NEWDELHI_PRES NEWDELHI_CI NEWDELHI_DP NEWDELHI_POCI REUNION_LAT REUNION_LON REUNION_TYPE REUNION_WIND REUNION_PRES REUNION_TNUM REUNION_CI REUNION_RMW REUNION_R34_NE REUNION_R34_SE REUNION_R34_SW REUNION_R34_NW REUNION_R50_NE REUNION_R50_SE REUNION_R50_SW REUNION_R50_NW REUNION_R64_NE REUNION_R64_SE REUNION_R64_SW REUNION_R64_NW BOM_LAT BOM_LON BOM_TYPE BOM_WIND BOM_PRES BOM_TNUM BOM_CI BOM_RMW BOM_R34_NE BOM_R34_SE BOM_R34_SW BOM_R34_NW BOM_R50_NE BOM_R50_SE BOM_R50_SW BOM_R50_NW BOM_R64_NE BOM_R64_SE BOM_R64_SW BOM_R64_NW BOM_ROCI BOM_POCI BOM_EYE BOM_POS_METHOD BOM_PRES_METHOD NADI_LAT NADI_LON NADI_CAT NADI_WIND NADI_PRES WELLINGTON_LAT WELLINGTON_LON WELLINGTON_WIND WELLINGTON_PRES DS824_LAT DS824_LON DS824_STAGE DS824_WIND DS824_PRES TD9636_LAT TD9636_LON TD9636_STAGE TD9636_WIND TD9636_PRES TD9635_LAT TD9635_LON TD9635_WIND TD9635_PRES TD9635_ROCI NEUMANN_LAT NEUMANN_LON NEUMANN_CLASS NEUMANN_WIND NEUMANN_PRES MLC_LAT MLC_LON MLC_CLASS MLC_WIND MLC_PRES USA_GUST BOM_GUST BOM_GUST_PER REUNION_GUST REUNION_GUST_PER USA_SEAHGT USA_SEARAD_NE USA_SEARAD_SE USA_SEARAD_SW USA_SEARAD_NW STORM_SPEED STORM_DIR
1954008S10074 1954 2 SI MM NOT_NAMED 1954-01-08 06:00:00 TS -9.80000 74.4000 main 1887 1887 O________OO___ jtwc_sh SH031954 -9.80000 74.4000 -1 -9.80000 74.4000 TC 25 -9.80000 74.4000 7 3 199
1954008S10074 1954 2 SI MM NOT_NAMED 1954-01-08 09:00:00 TS -9.94490 74.3474 main 1901 1901 P________PP___ SH031954 -9.95250 74.3500 -1 -9.95250 74.3500 TC 25 -9.92970 74.3422 7 3 199
1954008S10074 1954 2 SI MM NOT_NAMED 1954-01-08 12:00:00 TS -10.0892 74.2959 main 1922 1922 O________OP___ jtwc_sh SH031954 -10.1000 74.3000 -1 -10.1000 74.3000 TC 25 -10.0675 74.2875 7 3 199
1954008S10074 1954 2 SI MM NOT_NAMED 1954-01-08 15:00:00 TS -10.2355 74.2464 main 1937 1937 P________PP___ SH031954 -10.2425 74.2500 -1 -10.2425 74.2500 TC 25 -10.2216 74.2391 7 3 198
1954008S10074 1954 2 SI MM NOT_NAMED 1954-01-08 18:00:00 TS -10.4000 74.2000 main 1958 1958 O________OO___ jtwc_sh SH031954 -10.4000 74.2000 -1 -10.4000 74.2000 TC 25 -10.4000 74.2000 1 4 193
1954008S10074 1954 2 SI MM NOT_NAMED 1954-01-08 21:00:00 TS -10.5970 74.1523 main 1979 1979 P________PP___ SH031954 -10.5925 74.1425 -1 -10.5925 74.1425 TC 25 -10.6059 74.1719 1 4 191
1954008S10074 1954 2 SI MM NOT_NAMED 1954-01-09 00:00:00 TS -10.8075 74.1167 main 2003 2003 O________OP___ jtwc_sh SH031954 -10.8000 74.1000 -1 -10.8000 74.1000 TC 25 -10.8225 74.1500 1 4 186
1954008S10074 1954 2 SI MM NOT_NAMED 1954-01-09 03:00:00 TS -11.0193 74.1094 main 2024 2017 P________PP___ SH031954 -11.0150 74.1000 -1 -11.0150 74.1000 TC 25 -11.0278 74.1281 1 4 0
1954008S10074 1954 2 SI MM NOT_NAMED 1954-01-09 06:00:00 TS -11.2000 74.1000 main 2017 2011 O________OO___ jtwc_sh SH031954 -11.2000 74.1000 -1 -11.2000 74.1000 TC 25 -11.2000 74.1000 1 3 187
1954008S10074 1954 2 SI MM NOT_NAMED 1954-01-09 09:00:00 TS -11.3159 74.0601 main 2011 1996 P________PP___ SH031954 -11.3225 74.0575 -1 -11.3225 74.0575 TC 25 -11.3028 74.0653 1 2 204
1954008S10074 1954 2 SI MM NOT_NAMED 1954-01-09 12:00:00 TS -11.3908 74.0075 main 1996 1996 O________OP___ jtwc_sh SH031954 -11.4000 74.0000 -1 -11.4000 74.0000 TC 25 -11.3725 74.0224 1 2 216
1954008S10074 1954 2 SI MM NOT_NAMED 1954-01-09 15:00:00 TS -11.4436 73.9611 main 1996 1981 P________PP___ SH031954 -11.4500 73.9575 -1 -11.4500 73.9575 TC 30 -11.4309 73.9684 1 2 225
1954008S10074 1954 2 SI MM NOT_NAMED 1954-01-09 18:00:00 TS -11.5000 73.9000 main 1981 1965 O________OO___ jtwc_sh SH031954 -11.5000 73.9000 -1 -11.5000 73.9000 TC 35 -11.5000 73.9000 2 2 225
1954008S10074 1954 2 SI MM NOT_NAMED 1954-01-09 21:00:00 TS -11.5922 73.8111 main 1965 1950 P________PP___ SH031954 -11.5850 73.8075 -1 -11.5850 73.8075 TC 35 -11.6066 73.8184 2 3 222
1954008S10074 1954 2 SI MM NOT_NAMED 1954-01-10 00:00:00 TS -11.7092 73.7075 main 1950 1935 O________OP___ jtwc_sh SH031954 -11.7000 73.7000 -1 -11.7000 73.7000 TC 35 -11.7275 73.7225 2 3 218
1954008S10074 1954 2 SI MM NOT_NAMED 1954-01-10 03:00:00 TS -11.8482 73.6051 main 1935 1914 P________PP___ SH031954 -11.8425 73.6000 -1 -11.8425 73.6000 TC 35 -11.8597 73.6153 2 4 215
1954008S10074 1954 2 SI MM NOT_NAMED 1954-01-10 06:00:00 TS -12.0000 73.5000 main 1914 1899 O________OO___ jtwc_sh SH031954 -12.0000 73.5000 -1 -12.0000 73.5000 TC 35 -12.0000 73.5000 2 4 213
1954008S10074 1954 2 SI MM NOT_NAMED 1954-01-10 09:00:00 TS -12.1489 73.4017 main 1899 1879 P________PP___ SH031954 -12.1500 73.4075 -1 -12.1500 73.4075 TC 35 -12.1468 73.3903 2 4 214
1954008S10074 1954 2 SI MM NOT_NAMED 1954-01-10 12:00:00 TS -12.3000 73.2908 main 1879 1864 O________OP___ jtwc_sh SH031954 -12.3000 73.3000 -1 -12.3000 73.3000 TC 35 -12.2999 73.2725 2 4 219
1954008S10074 1954 2 SI MM NOT_NAMED 1954-01-10 15:00:00 TS -12.4510 73.1528 main 1858 1834 P________PP___ SH031954 -12.4500 73.1575 -1 -12.4500 73.1575 TC 35 -12.4531 73.1434 2 4 224
1954008S10074 1954 2 SI MM NOT_NAMED 1954-01-10 18:00:00 TS -12.6000 73.0000 main 1834 1819 O________OO___ jtwc_sh SH031954 -12.6000 73.0000 -1 -12.6000 73.0000 TC 35 -12.6000 73.0000 2 4 224
1954008S10074 1954 2 SI MM NOT_NAMED 1954-01-10 21:00:00 TS -12.7517 72.8541 main 1813 1789 P________PP___ SH031954 -12.7575 72.8575 -1 -12.7575 72.8575 TC 35 -12.7403 72.8475 2 4 226
1954008S10074 1954 2 SI MM NOT_NAMED 1954-01-11 00:00:00 TS -12.8908 72.6933 main 1789 1765 O________OP___ jtwc_sh SH031954 -12.9000 72.7000 -1 -12.9000 72.7000 TC 35 -12.8724 72.6800 2 4 234
1954008S10074 1954 2 SI MM NOT_NAMED 1954-01-11 03:00:00 TS -13.0028 72.5042 main 1765 1740 P________PP___ SH031954 -13.0075 72.5075 -1 -13.0075 72.5075 TC 35 -12.9934 72.4975 2 4 241
1954008S10074 1954 2 SI MM NOT_NAMED 1954-01-11 06:00:00 TS -13.1000 72.3000 main 1740 1716 O________OO___ jtwc_sh SH031954 -13.1000 72.3000 -1 -13.1000 72.3000 TC 35 -13.1000 72.3000 2 4 243
1954008S10074 1954 2 SI MM NOT_NAMED 1954-01-11 09:00:00 TS -13.2041 72.1014 main 1716 1692 P________PP___ SH031954 -13.2075 72.1075 -1 -13.2075 72.1075 TC 35 -13.1975 72.0894 2 4 244
1954008S10074 1954 2 SI MM NOT_NAMED 1954-01-11 12:00:00 TS -13.2933 71.8883 main 1692 1667 O________OP___ jtwc_sh SH031954 -13.3000 71.9000 -1 -13.3000 71.9000 TC 35 -13.2800 71.8650 2 5 251
1954008S10074 1954 2 SI MM NOT_NAMED 1954-01-11 15:00:00 TS -13.3592 71.6444 main 1658 1639 P________PP___ SH031954 -13.3650 71.6500 -1 -13.3650 71.6500 TC 35 -13.3475 71.6331 2 5 257
1954008S10074 1954 2 SI MM NOT_NAMED 1954-01-11 18:00:00 TS -13.4000 71.4000 main 1639 1620 O________OO___ jtwc_sh SH031954 -13.4000 71.4000 -1 -13.4000 71.4000 TC 35 -13.4000 71.4000 2 4 263
1954008S10074 1954 2 SI MM NOT_NAMED 1954-01-11 21:00:00 TS -13.4131 71.1876 main 1620 1601 P________PP___ SH031954 -13.3999 71.2000 -1 -13.3999 71.2000 TC 35 -13.4394 71.1628 2 4 267
1954008S10074 1954 2 SI MM NOT_NAMED 1954-01-12 00:00:00 TS -13.4217 70.9758 main 1601 1567 O________OP___ jtwc_sh SH031954 -13.4000 71.0000 -1 -13.4000 71.0000 TC 35 -13.4650 70.9274 2 4 264
1954008S10074 1954 2 SI MM NOT_NAMED 1954-01-12 03:00:00 TS -13.4611 70.7295 main 1567 1549 P________PP___ SH031954 -13.4500 70.7425 -1 -13.4500 70.7425 TC 50 -13.4831 70.7034 2 5 260
1954008S10074 1954 2 SI MM NOT_NAMED 1954-01-12 06:00:00 TS -13.5000 70.5000 main 1549 1530 O________OO___ jtwc_sh SH031954 -13.5000 70.5000 -1 -13.5000 70.5000 TC 65 -13.5000 70.5000 4 4 262
1954008S10074 1954 2 SI MM NOT_NAMED 1954-01-12 09:00:00 TS -13.5123 70.3355 main 1530 1521 P________PP___ SH031954 -13.5000 70.3350 -1 -13.5000 70.3350 TC 65 -13.5370 70.3366 4 3 265
1954008S10074 1954 2 SI MM NOT_NAMED 1954-01-12 12:00:00 TS -13.5241 70.1975 main 1521 1506 O________OP___ jtwc_sh SH031954 -13.5000 70.2000 -1 -13.5000 70.2000 TC 65 -13.5723 70.1926 4 3 258
1954008S10074 1954 2 SI MM NOT_NAMED 1954-01-12 15:00:00 TS -13.5705 70.0558 main 1506 1487 P________PP___ SH031954 -13.5575 70.0575 -1 -13.5575 70.0575 TC 65 -13.5964 70.0523 4 3 255
1954008S10074 1954 2 SI MM NOT_NAMED 1954-01-12 18:00:00 TS -13.6000 69.9000 main 1487 1469 O________OO___ jtwc_sh SH031954 -13.6000 69.9000 -1 -13.6000 69.9000 TC 65 -13.6000 69.9000 4 3 271
1954008S10074 1954 2 SI MM NOT_NAMED 1954-01-12 21:00:00 TS -13.5658 69.7111 main 1469 1456 P________PP___ SH031954 -13.5650 69.7075 -1 -13.5650 69.7075 TC 65 -13.5675 69.7184 4 4 284
1954008S10074 1954 2 SI MM NOT_NAMED 1954-01-13 00:00:00 TS -13.5050 69.5075 main 1456 1438 O________OP___ jtwc_sh SH031954 -13.5000 69.5000 -1 -13.5000 69.5000 TC 65 -13.5150 69.5224 4 4 286
1954008S10074 1954 2 SI MM NOT_NAMED 1954-01-13 03:00:00 TS -13.4516 69.3051 main 1438 1426 P________PP___ SH031954 -13.4500 69.3000 -1 -13.4500 69.3000 TC 65 -13.4550 69.3152 4 4 285
1954008S10074 1954 2 SI MM NOT_NAMED 1954-01-13 06:00:00 TS -13.4000 69.1000 main 1426 1408 O________OO___ jtwc_sh SH031954 -13.4000 69.1000 -1 -13.4000 69.1000 TC 65 -13.4000 69.1000 4 4 285
1954008S10074 1954 2 SI MM NOT_NAMED 1954-01-13 09:00:00 TS -13.3495 68.9018 main 1414 1396 P________PP___ SH031954 -13.3425 68.9075 -1 -13.3425 68.9075 TC 65 -13.3637 68.8903 4 4 283
1954008S10074 1954 2 SI MM NOT_NAMED 1954-01-13 12:00:00 TS -13.3116 68.6908 main 1396 1378 O________OP___ jtwc_sh SH031954 -13.3000 68.7000 -1 -13.3000 68.7000 TC 65 -13.3349 68.6725 4 4 277
1954008S10074 1954 2 SI MM NOT_NAMED 1954-01-13 15:00:00 TS -13.2995 68.4528 main 1378 1352 P________PP___ SH031954 -13.2925 68.4575 -1 -13.2925 68.4575 TC 65 -13.3136 68.4434 4 5 271
1954008S10074 1954 2 SI MM NOT_NAMED 1954-01-13 18:00:00 TS -13.3000 68.2000 main 1352 1334 O________OO___ jtwc_sh SH031954 -13.3000 68.2000 -1 -13.3000 68.2000 TC 65 -13.3000 68.2000 4 5 271
1954008S10074 1954 2 SI MM NOT_NAMED 1954-01-13 21:00:00 TS -13.2935 67.9447 main 1325 1308 P________PP___ SH031954 -13.3000 67.9575 -1 -13.3000 67.9575 TC 65 -13.2807 67.9190 4 5 271
1954008S10074 1954 2 SI MM NOT_NAMED 1954-01-14 00:00:00 TS -13.2901 67.6758 main 1308 1282 O________OP___ jtwc_sh SH031954 -13.3000 67.7000 -1 -13.3000 67.7000 TC 65 -13.2702 67.6274 4 6 271
1954008S10074 1954 2 SI MM NOT_NAMED 1954-01-14 03:00:00 TS -13.2865 67.3774 main 1282 1257 P________PP___ SH031954 -13.2925 67.3925 -1 -13.2925 67.3925 TC 65 -13.2745 67.3471 4 6 269
1954008S10074 1954 2 SI MM NOT_NAMED 1954-01-14 06:00:00 TS -13.3000 67.1000 main 1257 1240 O________OO___ jtwc_sh SH031954 -13.3000 67.1000 -1 -13.3000 67.1000 TC 65 -13.3000 67.1000 4 5 264
1954008S10074 1954 2 SI MM NOT_NAMED 1954-01-14 09:00:00 TS -13.3397 66.8685 main 1240 1216 P________PP___ SH031954 -13.3350 66.8700 -1 -13.3350 66.8700 TC 65 -13.3493 66.8655 4 4 255
1954008S10074 1954 2 SI MM NOT_NAMED 1954-01-14 12:00:00 TS -13.4066 66.6909 main 1216 1200 O________OP___ jtwc_sh SH031954 -13.4000 66.7000 -1 -13.4000 66.7000 TC 65 -13.4199 66.6727 4 3 243
1954008S10074 1954 2 SI MM NOT_NAMED 1954-01-14 15:00:00 TS -13.4968 66.5512 main 1200 1185 P________PP___ SH031954 -13.4925 66.5550 -1 -13.4925 66.5550 TC 65 -13.5055 66.5436 4 3 224
1954008S10074 1954 2 SI MM NOT_NAMED 1954-01-14 18:00:00 TS -13.6000 66.5000 main 1185 1178 O________OO___ jtwc_sh SH031954 -13.6000 66.5000 -1 -13.6000 66.5000 TC 65 -13.6000 66.5000 4 2 0
1954008S10074 1954 2 SI MM NOT_NAMED 1954-01-14 21:00:00 TS -13.6922 66.5539 main 1186 1179 P________PP___ SH031954 -13.7000 66.5550 -1 -13.7000 66.5550 TC 65 -13.6765 66.5516 4 3 135
1954008S10074 1954 2 SI MM NOT_NAMED 1954-01-15 00:00:00 TS -13.7875 66.6959 main 1188 1188 O________OP___ jtwc_sh SH031954 -13.8000 66.7000 -1 -13.8000 66.7000 TC 65 -13.7625 66.6876 4 4 121
1954008S10074 1954 2 SI MM NOT_NAMED 1954-01-15 03:00:00 TS -13.8791 66.8783 main 1198 1198 P________PP___ SH031954 -13.8850 66.8776 -1 -13.8850 66.8776 TC 65 -13.8672 66.8798 4 4 118
1954008S10074 1954 2 SI MM NOT_NAMED 1954-01-15 06:00:00 TS -14.0000 67.1000 main 1209 1209 O________OO___ jtwc_sh SH031954 -14.0000 67.1000 -1 -14.0000 67.1000 TC 65 -14.0000 67.1000 4 5 124
1954008S10074 1954 2 SI MM NOT_NAMED 1954-01-15 09:00:00 TS -14.1818 67.3385 main 1214 1214 P________PP___ SH031954 -14.1850 67.3500 -1 -14.1850 67.3500 TC 65 -14.1754 67.3154 4 6 130
1954008S10074 1954 2 SI MM NOT_NAMED 1954-01-15 12:00:00 TS -14.3925 67.5833 main 1229 1223 O________OP___ jtwc_sh SH031954 -14.4000 67.6000 -1 -14.4000 67.6000 TC 65 -14.3776 67.5498 4 6 133
1954008S10074 1954 2 SI MM NOT_NAMED 1954-01-15 15:00:00 TS -14.6020 67.8047 main 1235 1235 P________PP___ SH031954 -14.6075 67.8150 -1 -14.6075 67.8150 TC 65 -14.5910 67.7842 4 6 135
1954008S10074 1954 2 SI MM NOT_NAMED 1954-01-15 18:00:00 TS -14.8000 68.0000 main 1242 1242 O________OO___ jtwc_sh SH031954 -14.8000 68.0000 -1 -14.8000 68.0000 TC 65 -14.8000 68.0000 4 5 134
1954008S10074 1954 2 SI MM NOT_NAMED 1954-01-15 21:00:00 TS -14.9431 68.1691 main 1255 1250 P________PP___ SH031954 -14.9500 68.1576 -1 -14.9500 68.1576 TC 65 -14.9293 68.1921 4 4 133
1954008S10074 1954 2 SI MM NOT_NAMED 1954-01-16 00:00:00 TS -15.0867 68.3201 main 1254 1254 O________OP___ jtwc_sh SH031954 -15.1000 68.3000 -1 -15.1000 68.3000 TC 65 -15.0600 68.3602 4 4 136
1954008S10074 1954 2 SI MM NOT_NAMED 1954-01-16 03:00:00 TS -15.2486 68.4761 main 1268 1257 P________PP___ SH031954 -15.2550 68.4650 -1 -15.2550 68.4650 TC 65 -15.2356 68.4982 4 5 147
1954008S10074 1954 2 SI MM NOT_NAMED 1954-01-16 06:00:00 TS -15.5000 68.6000 main 1262 1252 O________OO___ jtwc_sh SH031954 -15.5000 68.6000 -1 -15.5000 68.6000 TC 65 -15.5000 68.6000 4 7 164
1954008S10074 1954 2 SI MM NOT_NAMED 1954-01-16 09:00:00 TS -15.9046 68.6780 main 1252 1230 P________PP___ SH031954 -15.8975 68.6725 -1 -15.8975 68.6725 TC 65 -15.9187 68.6890 4 9 173
1954008S10074 1954 2 SI MM NOT_NAMED 1954-01-16 12:00:00 TS -16.4083 68.7132 main 1230 1209 O________OP___ jtwc_sh SH031954 -16.4000 68.7000 -1 -16.4000 68.7000 TC 65 -16.4249 68.7395 4 11 177
1954008S10074 1954 2 SI MM NOT_NAMED 1954-01-16 15:00:00 TS -16.9562 68.7300 main 1205 1188 P________PP___ SH031954 -16.9500 68.7224 -1 -16.9500 68.7224 TC 65 -16.9687 68.7452 4 11 0
1954008S10074 1954 2 SI MM NOT_NAMED 1954-01-16 18:00:00 TS -17.5000 68.7000 main 1188 1165 O________OO___ jtwc_sh SH031954 -17.5000 68.7000 -1 -17.5000 68.7000 TC 65 -17.5000 68.7000 4 10 186
1954008S10074 1954 2 SI MM NOT_NAMED 1954-01-16 21:00:00 TS -17.9746 68.6270 main 1163 1142 P________PP___ SH031954 -17.9725 68.6300 -1 -17.9725 68.6300 TC 65 -17.9789 68.6209 4 9 192
1954008S10074 1954 2 SI MM NOT_NAMED 1954-01-17 00:00:00 TS -18.4108 68.4968 main 1142 1112 O________OP___ jtwc_sh SH031954 -18.4000 68.5000 -1 -18.4000 68.5000 TC 65 -18.4323 68.4904 4 9 199
1954008S10074 1954 2 SI MM NOT_NAMED 1954-01-17 03:00:00 TS -18.8348 68.3199 main 1112 1084 P________PP___ SH031954 -18.8300 68.3225 -1 -18.8300 68.3225 TC 65 -18.8445 68.3146 4 9 205
1954008S10074 1954 2 SI MM NOT_NAMED 1954-01-17 06:00:00 TS -19.2000 68.1000 main 1084 1059 O________OO___ jtwc_sh SH031954 -19.2000 68.1000 -1 -19.2000 68.1000 TC 65 -19.2000 68.1000 4 8 213
1954008S10074 1954 2 SI MM NOT_NAMED 1954-01-17 09:00:00 TS -19.4835 67.8675 main 1059 1014 P________PP___ SH031954 -19.4800 67.8649 -1 -19.4800 67.8649 TC 65 -19.4905 67.8729 4 9 221
1954008S10074 1954 2 SI MM NOT_NAMED 1954-01-17 12:00:00 TS -19.8461 67.5107 reunion main 1014 980 O____O___OP___ jtwc_sh SH031954 -19.7000 67.6000 -1 -21.5000 66.4000 99 9.90000 -19.7000 67.6000 TC 65 -19.7249 67.6096 4 9 225
1954008S10074 1954 2 SI MM NOT_NAMED 1954-01-17 15:00:00 TS -20.1453 67.1722 main 980 948 P____P___PP___ SH031954 -19.9074 67.3149 -1 -21.5437 66.3129 99 -19.9074 67.3149 TC 65 -19.9217 67.3166 4 8 229
1954008S10074 1954 2 SI MM NOT_NAMED 1954-01-17 18:00:00 TS -20.3978 66.8444 main 938 906 O____P___OO___ jtwc_sh SH031954 -20.1000 67.0000 -1 -21.5892 66.2222 99 -20.1000 67.0000 TC 65 -20.1000 67.0000 4 8 231
1954008S10074 1954 2 SI MM NOT_NAMED 1954-01-17 21:00:00 TS -20.6367 66.5256 main 906 876 P____P___PP___ SH031954 -20.3075 66.6575 -1 -21.6383 66.1242 99 -20.3075 66.6575 TC 65 -20.2935 66.6633 4 7 236
1954008S10074 1954 2 SI MM NOT_NAMED 1954-01-18 00:00:00 TS -20.7913 66.2307 main 876 845 O____P___OP___ jtwc_sh SH031954 -20.5000 66.3000 -1 -21.6928 66.0155 99 -20.5000 66.3000 TC 65 -20.4726 66.3074 4 6 242
1954008S10074 1954 2 SI MM NOT_NAMED 1954-01-18 03:00:00 TS -20.9274 65.9312 main 845 825 P____P___PP___ SH031954 -20.6575 65.9424 -1 -21.7544 65.8923 99 -20.6575 65.9424 TC 65 -20.6404 65.9477 4 6 244
1954008S10074 1954 2 SI MM NOT_NAMED 1954-01-18 06:00:00 TS -21.0562 65.6378 main 816 796 O____P___OO___ jtwc_sh SH031954 -20.8000 65.6000 -1 -21.8250 65.7511 99 -20.8000 65.6000 TC 65 -20.8000 65.6000 4 6 244
1954008S10074 1954 2 SI MM NOT_NAMED 1954-01-18 09:00:00 TS -21.1897 65.3646 main 796 766 P____P___PP___ SH031954 -20.9499 65.2924 -1 -21.9063 65.5882 99 -20.9499 65.2924 TC 65 -20.9528 65.2852 4 6 242
1954008S10074 1954 2 SI MM NOT_NAMED 1954-01-18 12:00:00 TS -21.3249 65.0961 reunion main 766 737 O____O___OP___ jtwc_sh SH031954 -21.1000 65.0000 -1 -22.0000 65.4000 99 9.90000 -21.1000 65.0000 TC 65 -21.0996 64.9845 4 6 242
1954008S10074 1954 2 SI MM NOT_NAMED 1954-01-18 15:00:00 TS -21.4635 64.8187 main 739 720 P____P___PP___ SH031954 -21.2499 64.6999 -1 -22.1075 65.1834 99 -21.2499 64.6999 TC 65 -21.2466 64.6915 4 6 242
1954008S10074 1954 2 SI MM NOT_NAMED 1954-01-18 18:00:00 TS -21.6071 64.5346 main 710 692 O____P___OO___ jtwc_sh SH031954 -21.4000 64.4000 -1 -22.2285 64.9384 99 -21.4000 64.4000 TC 65 -21.4000 64.4000 4 6 242
1954008S10074 1954 2 SI MM NOT_NAMED 1954-01-18 21:00:00 TS -21.7516 64.2483 main 684 667 P____P___PP___ SH031954 -21.5424 64.0999 -1 -22.3623 64.6654 99 -21.5424 64.0999 TC 65 -21.5591 64.1279 4 6 241
1954008S10074 1954 2 SI MM NOT_NAMED 1954-01-19 00:00:00 TS -21.9087 63.9542 main 667 640 O____P___OP___ jtwc_sh SH031954 -21.7000 63.8000 -1 -22.5082 64.3651 99 -21.7000 63.8000 TC 65 -21.7266 63.8516 4 6 238
1954008S10074 1954 2 SI MM NOT_NAMED 1954-01-19 03:00:00 TS -22.0890 63.6580 main 643 611 P____P___PP___ SH031954 -21.8923 63.5224 -1 -22.6657 64.0379 99 -21.8923 63.5224 TC 65 -21.9058 63.5496 4 7 237
1954008S10074 1954 2 SI MM NOT_NAMED 1954-01-19 06:00:00 TS -22.2835 63.3211 main 611 582 O____P___OO___ jtwc_sh SH031954 -22.1000 63.2000 -1 -22.8339 63.6843 99 -22.1000 63.2000 TC 65 -22.1000 63.2000 4 8 241
1954008S10074 1954 2 SI MM NOT_NAMED 1954-01-19 09:00:00 TS -22.4760 62.9110 main 582 548 P____P___PP___ SH031954 -22.2925 62.7798 -1 -23.0122 63.3049 99 -22.2925 62.7798 TC 65 -22.3067 62.7793 4 9 244
1954008S10074 1954 2 SI MM NOT_NAMED 1954-01-19 12:00:00 TS -22.6819 62.4524 reunion main 553 518 O____O___OP___ jtwc_sh SH031954 -22.5000 62.3000 -1 -23.2000 62.9000 99 9.90000 -22.5000 62.3000 TC 65 -22.5276 62.3098 4 10 244
1954008S10074 1954 2 SI MM NOT_NAMED 1954-01-19 15:00:00 TS -22.9028 61.9768 main 518 488 P____P___PP___ SH031954 -22.7424 61.8074 -1 -23.3666 62.4818 99 -22.7424 61.8074 TC 65 -22.7597 61.8104 4 10 243
1954008S10074 1954 2 SI MM NOT_NAMED 1954-01-19 18:00:00 TS -23.1352 61.4837 main 488 462 O____P___OO___ jtwc_sh SH031954 -23.0000 61.3000 -1 -23.5408 62.0347 99 -23.0000 61.3000 TC 65 -23.0000 61.3000 4 10 243
1954008S10074 1954 2 SI MM NOT_NAMED 1954-01-19 21:00:00 TS -23.3617 60.9953 main 469 449 P____P___PP___ SH031954 -23.2498 60.7998 -1 -23.7254 61.5633 99 -23.2498 60.7998 TC 65 -23.2219 60.8182 4 10 243
1954008S10074 1954 2 SI MM NOT_NAMED 1954-01-20 00:00:00 TS -23.5943 60.5001 main 450 438 O____P___OP___ jtwc_sh SH031954 -23.5000 60.3000 -1 -23.9230 61.0722 99 -23.5000 60.3000 TC 65 -23.4541 60.3282 4 10 243
1954008S10074 1954 2 SI MM NOT_NAMED 1954-01-20 03:00:00 TS -23.8325 60.0011 main 438 437 P____P___PP___ SH031954 -23.7423 59.8072 -1 -24.1364 60.5658 99 -23.7423 59.8072 TC 65 -23.7093 59.8241 4 11 242
1954008S10074 1954 2 SI MM NOT_NAMED 1954-01-20 06:00:00 TS -24.0921 59.4872 main 442 438 O____P___OO___ jtwc_sh SH031954 -24.0000 59.3000 -1 -24.3684 60.0487 99 -24.0000 59.3000 TC 65 -24.0000 59.3000 4 11 241
1954008S10074 1954 2 SI MM NOT_NAMED 1954-01-20 09:00:00 TS -24.3690 58.9490 main 453 450 P____P___PP___ SH031954 -24.2698 58.7645 -1 -24.6220 59.5253 99 -24.2698 58.7645 TC 65 -24.3146 58.7417 4 12 239
1954008S10074 1954 2 SI MM NOT_NAMED 1954-01-20 12:00:00 TS -24.6918 58.3909 reunion main 463 458 O____O___OP___ jtwc_sh SH031954 -24.6000 58.2000 -1 -24.9000 59.0000 99 9.90000 -24.6000 58.2000 TC 65 -24.6674 58.1637 4 13 236
1954008S10074 1954 2 SI MM NOT_NAMED 1954-01-20 15:00:00 TS -25.0764 57.8137 main 470 465 P____P___PP___ SH031954 -25.0199 57.5999 -1 -25.2045 58.4762 99 -25.0199 57.5999 TC 65 -25.0614 57.5788 4 13 232
1954008S10074 1954 2 SI MM NOT_NAMED 1954-01-20 18:00:00 TS -25.5082 57.2384 main 486 486 O____P___OO___ jtwc_sh SH031954 -25.5000 57.0000 -1 -25.5329 57.9538 99 -25.5000 57.0000 TC 65 -25.5000 57.0000 4 14 229
1954008S10074 1954 2 SI MM NOT_NAMED 1954-01-20 21:00:00 TS -25.9573 56.6757 main 526 524 P____P___PP___ SH031954 -25.9847 56.4419 -1 -25.8816 57.4318 99 -25.9847 56.4419 TC 65 -25.9783 56.3872 4 14 227
1954008S10074 1954 2 SI MM NOT_NAMED 1954-01-21 00:00:00 TS -26.4363 56.1247 main 561 561 O____P___OP___ jtwc_sh SH031954 -26.5000 55.9000 -1 -26.2470 56.9093 99 -26.5000 55.9000 TC 65 -26.4984 55.7896 4 14 225
1954008S10074 1954 2 SI MM NOT_NAMED 1954-01-21 03:00:00 TS -26.9387 55.5644 main 614 614 P____P___PP___ SH031954 -27.0427 55.3126 -1 -26.6253 56.3855 99 -27.0427 55.3126 TC 65 -27.0441 55.2468 4 14 223
1954008S10074 1954 2 SI MM NOT_NAMED 1954-01-21 06:00:00 TS -27.4825 55.0120 main 684 684 O____P___OO___ jtwc_sh SH031954 -27.6000 54.8000 -1 -27.0127 55.8598 99 -27.6000 54.8000 TC 65 -27.6000 54.8000 4 14 219
1954008S10074 1954 2 SI MM NOT_NAMED 1954-01-21 09:00:00 TS -28.0411 54.5656 main 744 744 P____P___PP___ SH031954 -28.1497 54.4321 -1 -27.4056 55.3314 99 -28.1497 54.4321 TC 50 -28.1416 54.4496 4 13 210
1954008S10074 1954 2 SI MM NOT_NAMED 1954-01-21 12:00:00 TS -28.6280 54.2475 reunion main 810 810 O____O___OP___ jtwc_sh SH031954 -28.7000 54.2000 -1 -27.8000 54.8000 99 9.90000 -28.7000 54.2000 TC 35 -28.6911 54.2043 4 13 201
1954008S10074 1954 2 SI MM NOT_NAMED 1954-01-21 15:00:00 TS -29.2483 54.0505 main 835 833 P________PP___ SH031954 -29.2499 54.0473 -1 99 -29.2499 54.0473 TC 30 -29.2451 54.0568 4 12 190
1954008S10074 1954 2 SI MM NOT_NAMED 1954-01-21 18:00:00 TS -29.8000 54.0000 main 865 865 O________OO___ jtwc_sh SH031954 -29.8000 54.0000 -1 99 -29.8000 54.0000 TC 25 -29.8000 54.0000 7 11 182
1954008S10074 1954 2 SI MM NOT_NAMED 1954-01-21 21:00:00 TS -30.3509 54.0165 main 907 907 P________PP___ SH031954 -30.3500 54.0124 -1 99 -30.3500 54.0124 TC 25 -30.3527 54.0247 7 11 176
1954008S10074 1954 2 SI MM NOT_NAMED 1954-01-22 00:00:00 TS -30.9011 54.1044 main 950 950 O________OP___ jtwc_sh SH031954 -30.9000 54.1000 -1 99 -30.9000 54.1000 TC 25 -30.9032 54.1131 7 11 170
1954008S10074 1954 2 SI MM NOT_NAMED 1954-01-22 03:00:00 TS -31.4507 54.2398 main 1002 1002 P________PP___ SH031954 -31.4501 54.2371 -1 99 -31.4501 54.2371 TC 25 -31.4521 54.2451 7 11 167
1954008S10074 1954 2 SI MM NOT_NAMED 1954-01-22 06:00:00 TS -32.0000 54.4000 main 1055 O________OO___ jtwc_sh SH031954 -32.0000 54.4000 -1 99 -32.0000 54.4000 TC 25 -32.0000 54.4000 7 11 166

IBTrACS Databaseについて

本データベースは、米国NOAAが公開する1842年以降の世界の熱帯低気圧のベストトラックデータアーカイブInternational Best Track Archive for Climate Stewardship (IBTrACS)を、ウェブで閲覧しやすい形式に変換したものです。

最終更新日:2021-11-26